createdAt,value
2023-05-09T00:00:38.217Z,1.05
2023-05-09T00:03:06.303Z,0.80
2023-05-09T00:05:33.835Z,1.05
2023-05-09T00:08:01.260Z,0.85
2023-05-09T00:10:28.744Z,0.98
2023-05-09T00:12:57.043Z,1.00
2023-05-09T00:15:25.721Z,0.90
2023-05-09T00:17:53.234Z,1.05
2023-05-09T00:20:20.862Z,1.10
2023-05-09T00:22:48.317Z,0.88
2023-05-09T00:25:16.021Z,1.00
2023-05-09T00:27:43.625Z,0.80
2023-05-09T00:30:11.307Z,0.90
2023-05-09T00:32:40.435Z,0.90
2023-05-09T00:35:10.192Z,1.10
2023-05-09T00:37:38.050Z,1.00
2023-05-09T00:40:07.599Z,1.30
2023-05-09T00:42:35.876Z,1.10
2023-05-09T00:45:03.583Z,0.90
2023-05-09T00:47:31.429Z,1.10
2023-05-09T00:49:59.668Z,1.15
2023-05-09T00:52:27.648Z,1.20
2023-05-09T00:54:56.519Z,1.10
2023-05-09T00:57:24.050Z,1.02
2023-05-09T00:59:51.709Z,1.00
2023-05-09T01:02:19.874Z,1.27
2023-05-09T01:04:47.651Z,1.30
2023-05-09T01:07:35.506Z,1.15
2023-05-09T01:10:15.347Z,1.30
2023-05-09T01:13:06.525Z,0.90
2023-05-09T01:15:39.545Z,0.95
2023-05-09T01:18:13.435Z,1.20
2023-05-09T01:20:52.194Z,0.88
2023-05-09T01:23:30.283Z,1.10
2023-05-09T01:26:19.142Z,1.00
2023-05-09T01:29:24.164Z,1.20
2023-05-09T01:31:53.468Z,1.00
2023-05-09T01:34:26.460Z,1.45
2023-05-09T01:36:58.154Z,1.40
2023-05-09T01:39:28.389Z,1.30
2023-05-09T01:41:57.925Z,1.05
2023-05-09T01:44:28.514Z,1.50
2023-05-09T01:46:56.279Z,1.10
2023-05-09T01:49:25.255Z,1.40
2023-05-09T01:51:54.148Z,1.30
2023-05-09T01:54:26.242Z,1.23
2023-05-09T01:56:55.650Z,1.30
2023-05-09T01:59:23.852Z,1.30
2023-05-09T02:01:52.625Z,1.33
2023-05-09T02:04:20.918Z,1.15
2023-05-09T02:06:51.461Z,1.58
2023-05-09T02:09:20.344Z,1.30
2023-05-09T02:11:47.882Z,1.20
2023-05-09T02:14:15.854Z,1.38
2023-05-09T02:16:43.490Z,1.40
2023-05-09T02:19:11.285Z,1.40
2023-05-09T02:21:38.890Z,1.60
2023-05-09T02:24:06.742Z,2.25
2023-05-09T02:26:36.382Z,1.40
2023-05-09T02:29:07.188Z,1.35
2023-05-09T02:31:36.187Z,1.55
2023-05-09T02:34:05.579Z,1.50
2023-05-09T02:36:35.724Z,1.48
2023-05-09T02:39:03.641Z,1.67
2023-05-09T02:41:31.108Z,1.50
2023-05-09T02:43:58.605Z,1.67
2023-05-09T02:46:26.434Z,1.67
2023-05-09T02:48:54.264Z,1.45
2023-05-09T02:51:21.751Z,1.35
2023-05-09T02:53:49.287Z,1.58
2023-05-09T02:56:16.935Z,2.92
2023-05-09T02:58:50.988Z,2.58
2023-05-09T03:01:18.603Z,1.90
2023-05-09T03:03:46.798Z,2.10
2023-05-09T03:06:15.245Z,2.25
2023-05-09T03:08:42.645Z,2.10
2023-05-09T03:11:11.166Z,2.08
2023-05-09T03:13:38.720Z,1.90
2023-05-09T03:16:06.803Z,1.70
2023-05-09T03:18:34.265Z,1.52
2023-05-09T03:21:02.287Z,1.77
2023-05-09T03:23:30.515Z,1.92
2023-05-09T03:25:58.022Z,1.80
2023-05-09T03:28:25.428Z,1.50
2023-05-09T03:30:53.046Z,1.60
2023-05-09T03:33:23.789Z,1.90
2023-05-09T03:35:51.654Z,1.80
2023-05-09T03:38:19.345Z,1.70
2023-05-09T03:40:46.812Z,1.55
2023-05-09T03:43:14.735Z,1.83
2023-05-09T03:45:42.299Z,1.90
2023-05-09T03:48:11.584Z,1.65
2023-05-09T03:50:44.985Z,1.80
2023-05-09T03:53:14.157Z,1.60
2023-05-09T03:55:43.355Z,1.63
2023-05-09T03:58:13.089Z,1.73
2023-05-09T04:00:42.808Z,1.27
2023-05-09T04:03:16.812Z,1.42
2023-05-09T04:05:47.372Z,1.30
2023-05-09T04:08:25.078Z,1.40
2023-05-09T04:10:53.520Z,1.20
2023-05-09T04:13:21.286Z,1.30
2023-05-09T04:15:49.260Z,1.42
2023-05-09T04:18:17.087Z,1.33
2023-05-09T04:20:45.329Z,1.50
2023-05-09T04:23:13.289Z,1.30
2023-05-09T04:25:40.815Z,1.23
2023-05-09T04:28:08.418Z,1.63
2023-05-09T04:30:37.653Z,1.70
2023-05-09T04:33:05.659Z,1.77
2023-05-09T04:35:33.717Z,1.83
2023-05-09T04:38:01.301Z,1.50
2023-05-09T04:40:28.856Z,1.48
2023-05-09T04:42:59.784Z,1.50
2023-05-09T04:45:30.128Z,1.40
2023-05-09T04:47:59.287Z,1.67
2023-05-09T04:50:26.769Z,1.42
2023-05-09T04:52:54.250Z,1.70
2023-05-09T04:55:21.834Z,1.70
2023-05-09T04:57:51.077Z,1.70
2023-05-09T05:00:19.416Z,1.40
2023-05-09T05:02:48.703Z,1.80
2023-05-09T05:05:16.597Z,1.73
2023-05-09T05:07:44.783Z,1.55
2023-05-09T05:10:18.156Z,2.10
2023-05-09T05:12:49.715Z,1.23
2023-05-09T05:15:19.611Z,1.48
2023-05-09T05:17:48.771Z,1.77
2023-05-09T05:20:19.760Z,2.30
2023-05-09T05:22:47.562Z,1.77
2023-05-09T05:25:15.370Z,1.85
2023-05-09T05:27:45.053Z,1.73
2023-05-09T05:30:15.676Z,1.17
2023-05-09T05:32:44.094Z,1.38
2023-05-09T05:35:13.838Z,1.50
2023-05-09T05:37:42.365Z,1.30
2023-05-09T05:40:10.627Z,1.48
2023-05-09T05:42:41.262Z,1.40
2023-05-09T05:45:09.626Z,1.45
2023-05-09T05:47:40.116Z,1.40
2023-05-09T05:50:11.654Z,1.25
2023-05-09T05:52:40.022Z,1.10
2023-05-09T05:55:08.899Z,1.35
2023-05-09T05:57:39.129Z,1.23
2023-05-09T06:00:11.258Z,1.20
2023-05-09T06:02:45.498Z,0.93
2023-05-09T06:05:20.513Z,1.42
2023-05-09T06:07:48.126Z,1.40
2023-05-09T06:10:18.582Z,1.30
2023-05-09T06:12:46.542Z,1.17
2023-05-09T06:15:14.187Z,1.50
2023-05-09T06:17:45.835Z,1.13
2023-05-09T06:20:13.342Z,1.50
2023-05-09T06:22:40.947Z,1.52
2023-05-09T06:25:10.654Z,1.23
2023-05-09T06:27:38.835Z,1.10
2023-05-09T06:30:23.732Z,1.10
2023-05-09T06:32:52.956Z,1.38
2023-05-09T06:35:20.685Z,1.20
2023-05-09T06:37:49.045Z,1.00
2023-05-09T06:40:17.344Z,1.30
2023-05-09T06:42:45.343Z,1.40
2023-05-09T06:45:13.185Z,1.05
2023-05-09T06:47:41.029Z,1.02
2023-05-09T06:50:09.132Z,0.95
2023-05-09T06:52:36.744Z,1.40
2023-05-09T06:55:04.767Z,1.08
2023-05-09T06:57:32.604Z,1.10
2023-05-09T07:00:00.080Z,0.75
2023-05-09T07:02:27.600Z,1.10
2023-05-09T07:04:55.195Z,1.10
2023-05-09T07:07:22.835Z,0.98
2023-05-09T07:09:55.224Z,0.80
2023-05-09T07:12:28.345Z,0.90
2023-05-09T07:14:55.748Z,1.00
2023-05-09T07:17:24.667Z,0.80
2023-05-09T07:19:52.489Z,0.90
2023-05-09T07:22:20.143Z,0.90
2023-05-09T07:24:47.899Z,0.98
2023-05-09T07:27:15.531Z,1.02
2023-05-09T07:29:43.056Z,0.77
2023-05-09T07:32:11.133Z,0.80
2023-05-09T07:34:38.750Z,0.93
2023-05-09T07:37:06.357Z,0.80
2023-05-09T07:39:33.892Z,0.75
2023-05-09T07:42:01.455Z,0.75
2023-05-09T07:44:29.017Z,0.65
2023-05-09T07:46:59.209Z,0.70
2023-05-09T07:49:26.890Z,0.88
2023-05-09T07:51:54.276Z,1.00
2023-05-09T07:54:21.813Z,1.13
2023-05-09T07:56:49.362Z,1.10
2023-05-09T07:59:17.376Z,0.80
2023-05-09T08:01:44.998Z,0.80
2023-05-09T08:04:12.792Z,0.88
2023-05-09T08:06:40.419Z,0.80
2023-05-09T08:09:07.984Z,0.57
2023-05-09T08:11:36.135Z,0.38
2023-05-09T08:14:03.815Z,0.88
2023-05-09T08:16:31.315Z,0.77
2023-05-09T08:18:58.827Z,0.60
2023-05-09T08:21:26.631Z,0.90
2023-05-09T08:23:54.181Z,0.85
2023-05-09T08:26:22.760Z,0.90
2023-05-09T08:28:50.183Z,0.80
2023-05-09T08:31:17.757Z,0.75
2023-05-09T08:33:45.334Z,0.80
2023-05-09T08:36:12.772Z,0.80
2023-05-09T08:38:40.785Z,0.90
2023-05-09T08:41:08.294Z,0.80
2023-05-09T08:43:36.267Z,0.93
2023-05-09T08:46:10.394Z,1.05
2023-05-09T08:48:38.865Z,1.00
2023-05-09T08:51:07.535Z,1.33
2023-05-09T08:53:35.332Z,1.10
2023-05-09T08:56:06.323Z,1.10
2023-05-09T08:58:34.321Z,1.00
2023-05-09T09:01:06.828Z,1.30
2023-05-09T09:03:34.328Z,1.35
2023-05-09T09:06:02.008Z,1.13
2023-05-09T09:08:30.224Z,0.98
2023-05-09T09:10:58.196Z,0.90
2023-05-09T09:13:26.278Z,0.90
2023-05-09T09:15:54.543Z,0.90
2023-05-09T09:18:28.241Z,1.30
2023-05-09T09:21:05.127Z,0.90
2023-05-09T09:23:33.626Z,1.08
2023-05-09T09:26:06.866Z,0.90
2023-05-09T09:28:34.537Z,1.20
2023-05-09T09:31:02.386Z,1.13
2023-05-09T09:33:30.792Z,0.88
2023-05-09T09:35:59.501Z,0.82
2023-05-09T09:38:26.966Z,1.00
2023-05-09T09:40:58.309Z,1.08
2023-05-09T09:43:32.397Z,1.33
2023-05-09T09:46:03.845Z,0.88
2023-05-09T09:48:33.985Z,1.10
2023-05-09T09:51:09.018Z,0.90
2023-05-09T09:53:43.723Z,1.05
2023-05-09T09:56:11.767Z,1.10
2023-05-09T09:58:39.548Z,0.90
2023-05-09T10:01:08.282Z,0.90
2023-05-09T10:03:46.267Z,1.10
2023-05-09T10:06:16.218Z,1.02
2023-05-09T10:08:47.256Z,0.82
2023-05-09T10:11:15.986Z,0.90
2023-05-09T10:13:44.623Z,1.00
2023-05-09T10:16:13.897Z,1.05
2023-05-09T10:18:43.372Z,1.30
2023-05-09T10:21:15.418Z,1.13
2023-05-09T10:23:47.392Z,1.00
2023-05-09T10:26:28.932Z,1.40
2023-05-09T10:28:58.068Z,1.30
2023-05-09T10:31:27.456Z,1.05
2023-05-09T10:33:58.851Z,1.00
2023-05-09T10:36:26.679Z,1.15
2023-05-09T10:38:55.542Z,0.90
2023-05-09T10:41:24.023Z,1.48
2023-05-09T10:43:52.220Z,1.00
2023-05-09T10:46:20.491Z,0.90
2023-05-09T10:48:48.958Z,1.00
2023-05-09T10:51:17.577Z,0.90
2023-05-09T10:53:46.824Z,0.90
2023-05-09T10:56:27.543Z,0.95
2023-05-09T10:58:55.412Z,0.90
2023-05-09T11:01:31.661Z,0.93
2023-05-09T11:04:00.233Z,1.13
2023-05-09T11:06:49.580Z,1.15
2023-05-09T11:09:35.440Z,0.90
2023-05-09T11:12:05.978Z,1.30
2023-05-09T11:14:45.150Z,1.30
2023-05-09T11:17:22.004Z,1.17
2023-05-09T11:19:49.616Z,1.20
2023-05-09T11:22:20.979Z,1.30
2023-05-09T11:24:50.336Z,1.20
2023-05-09T11:27:25.593Z,1.33
2023-05-09T11:29:58.218Z,1.05
2023-05-09T11:32:33.244Z,1.00
2023-05-09T11:35:15.614Z,0.93
2023-05-09T11:38:02.659Z,1.10
2023-05-09T11:40:31.117Z,1.00
2023-05-09T11:43:00.671Z,1.35
2023-05-09T11:45:32.864Z,1.20
2023-05-09T11:48:04.220Z,1.30
2023-05-09T11:50:31.950Z,1.50
2023-05-09T11:52:59.463Z,1.48
2023-05-09T11:55:30.132Z,1.60
2023-05-09T11:57:59.093Z,1.40
2023-05-09T12:00:26.826Z,1.35
2023-05-09T12:02:54.629Z,1.60
2023-05-09T12:05:23.333Z,2.00
2023-05-09T12:07:52.333Z,1.65
2023-05-09T12:10:21.995Z,1.88
2023-05-09T12:12:51.511Z,1.95
2023-05-09T12:15:21.539Z,1.73
2023-05-09T12:18:03.108Z,1.42
2023-05-09T12:20:53.200Z,1.80
2023-05-09T12:23:20.714Z,1.83
2023-05-09T12:25:56.019Z,1.83
2023-05-09T12:28:24.781Z,1.70
2023-05-09T12:30:53.840Z,1.70
2023-05-09T12:33:22.371Z,1.77
2023-05-09T12:36:13.217Z,1.50
2023-05-09T12:38:40.954Z,1.98
2023-05-09T12:41:29.878Z,2.10
2023-05-09T12:43:58.506Z,2.00
2023-05-09T12:46:26.090Z,1.88
2023-05-09T12:48:55.174Z,1.63
2023-05-09T12:51:23.421Z,1.90
2023-05-09T12:53:51.154Z,1.50
2023-05-09T12:56:20.531Z,2.25
2023-05-09T12:58:53.028Z,2.40
2023-05-09T13:01:23.533Z,1.50
2023-05-09T13:03:52.724Z,1.80
2023-05-09T13:06:21.185Z,1.70
2023-05-09T13:09:06.025Z,1.73
2023-05-09T13:11:33.636Z,2.03
2023-05-09T13:14:03.328Z,1.75
2023-05-09T13:16:31.097Z,2.00
2023-05-09T13:18:58.560Z,1.70
2023-05-09T13:21:26.075Z,1.50
2023-05-09T13:23:54.520Z,1.50
2023-05-09T13:26:22.469Z,1.92
2023-05-09T13:28:50.094Z,1.55
2023-05-09T13:31:18.775Z,1.50
2023-05-09T13:33:46.310Z,2.03
2023-05-09T13:36:13.924Z,1.08
2023-05-09T13:38:42.147Z,1.38
2023-05-09T13:41:10.396Z,1.55
2023-05-09T13:43:39.222Z,1.40
2023-05-09T13:46:06.824Z,2.00
2023-05-09T13:48:34.336Z,1.40
2023-05-09T13:51:01.887Z,1.60
2023-05-09T13:53:29.429Z,2.20
2023-05-09T13:55:57.145Z,1.33
2023-05-09T13:58:24.807Z,1.17
2023-05-09T14:00:52.227Z,1.45
2023-05-09T14:03:19.754Z,1.35
2023-05-09T14:05:48.175Z,1.60
2023-05-09T14:08:15.632Z,2.97
2023-05-09T14:10:43.097Z,3.15
2023-05-09T14:13:12.592Z,2.75
2023-05-09T14:15:40.562Z,2.97
2023-05-09T14:18:08.339Z,2.38
2023-05-09T14:20:37.684Z,1.90
2023-05-09T14:23:05.178Z,2.67
2023-05-09T14:25:32.743Z,1.50
2023-05-09T14:28:00.331Z,1.92
2023-05-09T14:30:28.264Z,1.98
2023-05-09T14:32:55.752Z,2.05
2023-05-09T14:35:23.877Z,1.52
2023-05-09T14:37:51.565Z,1.40
2023-05-09T14:40:21.291Z,1.70
2023-05-09T14:42:49.203Z,1.55
2023-05-09T14:45:17.024Z,2.00
2023-05-09T14:47:44.682Z,1.70
2023-05-09T14:50:15.867Z,1.30
2023-05-09T14:52:44.456Z,1.40
2023-05-09T14:55:12.126Z,1.05
2023-05-09T14:57:39.898Z,1.58
2023-05-09T15:00:19.382Z,1.33
2023-05-09T15:02:48.793Z,1.30
2023-05-09T15:05:16.891Z,1.35
2023-05-09T15:07:44.494Z,1.30
2023-05-09T15:10:12.283Z,1.40
2023-05-09T15:12:39.940Z,1.30
2023-05-09T15:15:18.326Z,1.20
2023-05-09T15:17:46.304Z,1.08
2023-05-09T15:20:20.522Z,1.27
2023-05-09T15:22:49.776Z,1.52
2023-05-09T15:25:17.815Z,1.30
2023-05-09T15:27:45.478Z,1.10
2023-05-09T15:30:13.708Z,1.40
2023-05-09T15:32:41.636Z,1.00
2023-05-09T15:35:09.407Z,1.08
2023-05-09T15:37:37.333Z,0.93
2023-05-09T15:40:05.380Z,1.00
2023-05-09T15:42:32.855Z,1.15
2023-05-09T15:45:00.596Z,1.00
2023-05-09T15:47:28.192Z,0.90
2023-05-09T15:49:55.735Z,1.00
2023-05-09T15:52:23.157Z,1.27
2023-05-09T15:54:50.862Z,1.30
2023-05-09T15:57:18.386Z,1.20
2023-05-09T15:59:45.927Z,1.23
2023-05-09T16:02:13.399Z,1.17
2023-05-09T16:04:42.506Z,1.50
2023-05-09T16:07:10.143Z,1.23
2023-05-09T16:09:38.490Z,1.05
2023-05-09T16:12:07.433Z,1.20
2023-05-09T16:14:35.050Z,1.08
2023-05-09T16:17:05.385Z,1.00
2023-05-09T16:19:35.656Z,0.90
2023-05-09T16:22:03.775Z,1.17
2023-05-09T16:24:31.905Z,1.08
2023-05-09T16:26:59.517Z,1.60
2023-05-09T16:29:28.572Z,1.30
2023-05-09T16:31:56.173Z,1.20
2023-05-09T16:34:23.721Z,1.48
2023-05-09T16:36:52.331Z,1.38
2023-05-09T16:39:19.862Z,1.15
2023-05-09T16:41:47.478Z,1.55
2023-05-09T16:44:15.456Z,1.50
2023-05-09T16:46:43.054Z,1.30
2023-05-09T16:49:11.212Z,1.10
2023-05-09T16:51:38.943Z,1.30
2023-05-09T16:54:06.733Z,1.33
2023-05-09T16:56:34.931Z,1.45
2023-05-09T16:59:02.689Z,1.38
2023-05-09T17:01:30.449Z,1.40
2023-05-09T17:03:57.989Z,1.20
2023-05-09T17:06:26.266Z,1.65
2023-05-09T17:08:54.186Z,1.80
2023-05-09T17:11:22.716Z,1.70
2023-05-09T17:13:50.208Z,1.63
2023-05-09T17:16:17.716Z,1.70
2023-05-09T17:18:48.138Z,2.05
2023-05-09T17:21:16.696Z,2.13
2023-05-09T17:23:44.204Z,1.95
2023-05-09T17:26:12.033Z,1.70
2023-05-09T17:28:39.594Z,1.75
2023-05-09T17:31:07.575Z,1.77
2023-05-09T17:33:35.150Z,2.15
2023-05-09T17:36:02.679Z,1.60
2023-05-09T17:38:30.217Z,2.20
2023-05-09T17:40:58.379Z,2.85
2023-05-09T17:43:27.853Z,2.15
2023-05-09T17:45:55.435Z,2.40
2023-05-09T17:48:22.937Z,2.58
2023-05-09T17:50:50.762Z,2.90
2023-05-09T17:53:18.403Z,2.17
2023-05-09T17:55:45.874Z,1.90
2023-05-09T17:58:14.893Z,2.20
2023-05-09T18:00:42.348Z,1.77
2023-05-09T18:03:09.919Z,1.92
2023-05-09T18:05:38.100Z,1.88
2023-05-09T18:08:05.708Z,1.60
2023-05-09T18:10:33.287Z,1.80
2023-05-09T18:13:00.913Z,2.00
2023-05-09T18:15:28.448Z,2.25
2023-05-09T18:17:57.709Z,2.15
2023-05-09T18:20:25.469Z,1.80
2023-05-09T18:22:54.292Z,2.00
2023-05-09T18:25:21.916Z,1.95
2023-05-09T18:27:49.445Z,2.88
2023-05-09T18:30:18.203Z,2.50
2023-05-09T18:32:45.740Z,2.20
2023-05-09T18:35:13.569Z,2.03
2023-05-09T18:37:41.907Z,2.13
2023-05-09T18:40:14.962Z,2.30
2023-05-09T18:42:42.908Z,2.20
2023-05-09T18:45:10.866Z,2.13
2023-05-09T18:47:38.932Z,2.10
2023-05-09T18:50:08.011Z,2.05
2023-05-09T18:52:35.644Z,1.60
2023-05-09T18:55:03.225Z,2.47
2023-05-09T18:57:30.758Z,1.55
2023-05-09T18:59:58.897Z,2.35
2023-05-09T19:02:26.681Z,2.70
2023-05-09T19:04:54.143Z,1.90
2023-05-09T19:07:22.730Z,2.00
2023-05-09T19:09:50.204Z,1.77
2023-05-09T19:12:17.768Z,2.13
2023-05-09T19:14:45.247Z,2.10
2023-05-09T19:17:12.826Z,2.22
2023-05-09T19:19:40.293Z,2.15
2023-05-09T19:22:07.787Z,2.20
2023-05-09T19:24:35.232Z,2.38
2023-05-09T19:27:02.850Z,2.30
2023-05-09T19:29:30.413Z,2.40
2023-05-09T19:31:58.319Z,2.50
2023-05-09T19:34:25.957Z,3.17
2023-05-09T19:36:53.506Z,4.75
2023-05-09T19:39:21.110Z,2.20
2023-05-09T19:41:48.575Z,3.33
2023-05-09T19:44:16.131Z,3.63
2023-05-09T19:46:43.865Z,3.05
2023-05-09T19:49:12.138Z,3.33
2023-05-09T19:51:39.603Z,2.70
2023-05-09T19:54:07.293Z,3.22
2023-05-09T19:56:34.816Z,3.05
2023-05-09T19:59:02.261Z,3.05
2023-05-09T20:01:29.789Z,3.40
2023-05-09T20:03:57.385Z,2.88
2023-05-09T20:06:25.873Z,2.58
2023-05-09T20:08:53.341Z,3.05
2023-05-09T20:11:21.728Z,2.78
2023-05-09T20:13:49.250Z,3.50
2023-05-09T20:16:16.929Z,3.15
2023-05-09T20:18:44.571Z,3.88
2023-05-09T20:21:12.171Z,3.17
2023-05-09T20:23:40.011Z,4.40
2023-05-09T20:26:07.591Z,3.72
2023-05-09T20:28:35.148Z,4.00
2023-05-09T20:31:03.426Z,3.58
2023-05-09T20:33:30.862Z,5.85
2023-05-09T20:35:58.354Z,5.07
2023-05-09T20:38:25.864Z,4.53
2023-05-09T20:40:53.326Z,5.35
2023-05-09T20:43:20.854Z,3.40
2023-05-09T20:47:26.420Z,3.38
2023-05-09T20:49:55.149Z,3.65
2023-05-09T20:52:23.735Z,3.20
2023-05-09T20:54:51.263Z,2.78
2023-05-09T20:57:18.878Z,3.22
2023-05-09T20:59:46.328Z,2.20
2023-05-09T21:02:13.881Z,2.33
2023-05-09T21:04:41.519Z,2.35
2023-05-09T21:07:10.018Z,2.13
2023-05-09T21:09:37.726Z,2.50
2023-05-09T21:12:05.422Z,2.50
2023-05-09T21:14:32.992Z,2.30
2023-05-09T21:17:00.550Z,1.92
2023-05-09T21:19:28.576Z,2.42
2023-05-09T21:21:56.000Z,3.08
2023-05-09T21:24:23.577Z,2.40
2023-05-09T21:26:51.381Z,2.20
2023-05-09T21:29:18.873Z,2.95
2023-05-09T21:31:46.345Z,3.40
2023-05-09T21:36:58.297Z,4.47
2023-05-09T21:39:25.818Z,4.18
2023-05-09T21:41:53.318Z,4.97
2023-05-09T21:44:20.857Z,4.97
2023-05-09T21:46:48.508Z,6.22
2023-05-09T21:49:20.981Z,6.88
2023-05-09T21:51:49.306Z,7.28
2023-05-09T21:54:16.898Z,7.53
2023-05-09T21:56:44.398Z,6.13
2023-05-09T21:59:11.864Z,6.90
2023-05-09T22:01:39.423Z,6.65
2023-05-09T22:04:07.408Z,6.55
2023-05-09T22:06:34.895Z,6.05
2023-05-09T22:09:02.328Z,5.20
2023-05-09T22:11:29.999Z,4.57
2023-05-09T22:13:57.417Z,4.72
2023-05-09T22:16:24.979Z,4.75
2023-05-09T22:18:52.778Z,5.20
2023-05-09T22:21:20.277Z,4.32
2023-05-09T22:23:47.756Z,5.25
2023-05-09T22:26:15.270Z,3.78
2023-05-09T22:28:42.998Z,3.55
2023-05-09T22:31:10.729Z,4.70
2023-05-09T22:33:38.175Z,4.72
2023-05-09T22:36:05.966Z,4.22
2023-05-09T22:38:33.566Z,4.20
2023-05-09T22:41:01.149Z,3.55
2023-05-09T22:43:36.510Z,3.72
2023-05-09T22:46:06.628Z,3.92
2023-05-09T22:48:34.276Z,3.88
2023-05-09T22:51:02.194Z,4.47
2023-05-09T22:53:29.808Z,4.90
2023-05-09T22:55:57.899Z,4.15
2023-05-09T22:58:26.493Z,4.03
2023-05-09T23:00:54.048Z,4.18
2023-05-09T23:03:21.826Z,4.53
2023-05-09T23:05:49.445Z,4.15
2023-05-09T23:08:17.083Z,3.88
2023-05-09T23:10:44.561Z,3.72
2023-05-09T23:13:12.437Z,3.97
2023-05-09T23:15:39.946Z,3.67
2023-05-09T23:18:07.484Z,3.47
2023-05-09T23:20:36.230Z,4.63
2023-05-09T23:23:03.809Z,3.20
2023-05-09T23:25:31.582Z,3.00
2023-05-09T23:27:59.033Z,3.22
2023-05-09T23:30:26.509Z,3.25
2023-05-09T23:32:54.075Z,2.97
2023-05-09T23:35:22.335Z,2.10
2023-05-09T23:37:49.797Z,2.20
2023-05-09T23:40:17.587Z,2.40
2023-05-09T23:42:45.661Z,4.03
2023-05-09T23:45:13.363Z,2.30
2023-05-09T23:47:40.793Z,2.60
2023-05-09T23:50:08.766Z,2.72
2023-05-09T23:52:36.272Z,2.10
2023-05-09T23:55:04.034Z,1.73
2023-05-09T23:57:31.728Z,2.47
2023-05-09T23:59:59.675Z,2.03
